North Windham, CT (06256)

8:26 AM EDT on October 21, 2014 (GMT -0400)
"Fox Den" Rt6 Chaplin | Change Station
CLOSE
Current Station
Personal Weather Station
Location: Chaplin, CT
Elevation: 584 ft
Nearby Weather Stations

Elev 584 ft 41.77 °N, 72.11 °W | Updated 8 minutes ago

Partly Cloudy
Partly Cloudy
52.5 °F
Feels Like 52.5 °F
N
1.7
Wind Variable Wind from ESE

Today
High -- | Low -- °F
--% Chance of Precip.
Yesterday
High -- | Low -- °F
Precip. -- in
7:07 AM 5:58 PM
Waning Crescent, 6% visible
Pressure 29.96 in
Visibility 10.0 miles
Clouds Few 11000 ft
Dew Point 52 °F
Humidity 97%
Rainfall 0.00 in
Snow Depth Not available.
UV 0 out of 12
Pollen .30 out of 12
Ozone Good
Flu Activity Sporadic
METAR KIJD 211152Z AUTO 00000KT 10SM FEW110 06/04 A2996 RMK AO2 SLP146 T00560039 10056 20044 53001

More Conditions Fewer Conditions

Pressure 29.96 in
Visibility 10.0 miles
Clouds Few 11000 ft
Dew Point 52 °F
Humidity 97%
Rainfall 0.00 in
Snow Depth Not available.
UV 0 out of 12
Pollen .30 out of 12
Ozone Good
Flu Activity Sporadic
METAR KIJD 211152Z AUTO 00000KT 10SM FEW110 06/04 A2996 RMK AO2 SLP146 T00560039 10056 20044 53001

More Conditions Fewer Conditions

10-Day Weather Forecast

Almanac

Astronomy

Oct. 21, 2014 Rise Set
Actual Time 7:07 AM EDT 5:58 PM EDT
Civil Twilight 6:39 AM EDT 6:26 PM EDT
Nautical Twilight 6:06 AM EDT 6:58 PM EDT
Astronomical Twilight 5:34 AM EDT 7:30 PM EDT
Moon 4:47 AM EDT 4:52 PM EDT
Length of Visible Light 11h 47m
Length of Day
10h 50m
Tomorrow will be 2m 38s shorter.
Waning Crescent, 6% of the Moon is Illuminated
Today
Waning Crescent
Oct 23
New
Oct 30
First Quarter
Nov 6
Full
Nov 14
Last Quarter

Today's Extremes

State Highs State Lows

Community

WunderPhotos

Upload Photos

1,763,647 photos uploaded!

Nearby

Air Quality

  Air Quality AQ Index Pollutant
Yesterday Good
OZONE
Current Good
OZONE

Snow Depth

Station Depth Elevation
No new snow has been reported.

Earthquake Activity

City Distance Mag. Time & Date
No recent earthquake activity has been reported nearby.
Minimum magnitude displayed is 2.5.

Coastal Water Temperatures

Place Temperature
New London, CT 64.0 °F
Newport, RI 61.0 °F
Quonset Point, RI 61.0 °F
Conimicut Light, RI 60.1 °F
Providence, RI 61.0 °F

Nearby Weather Stations